Time,TemperatureF,DewpointF,PressureIn,WindDirection,WindDirectionDegrees,WindSpeedMPH,WindSpeedGustMPH,Humidity,HourlyPrecipIn,Conditions,Clouds,dailyrainin,SoftwareType,DateUTC
2013-01-03 00:02:00,15.9,13.5,30.28,SE,136,0.0,0.0,90,0.00,,,0.01,Wunderground v.1.15,2013-01-03 05:02:00,
2013-01-03 00:03:00,15.9,13.5,30.28,SE,136,0.0,0.0,90,0.00,,,0.01,Wunderground v.1.15,2013-01-03 05:03:00,
2013-01-03 00:04:00,15.9,13.5,30.28,SE,136,0.0,0.0,90,0.00,,,0.01,Wunderground v.1.15,2013-01-03 05:04:00,
2013-01-03 00:06:00,15.9,13.5,30.28,SE,136,0.0,0.0,90,0.00,,,0.00,Wunderground v.1.15,2013-01-03 05:06:00,
2013-01-03 00:11:00,15.8,13.4,30.28,SE,136,0.0,0.0,90,0.00,,,0.00,Wunderground v.1.15,2013-01-03 05:11:00,
2013-01-03 00:16:00,15.7,13.3,30.27,SE,136,0.0,0.0,90,0.00,,,0.00,Wunderground v.1.15,2013-01-03 05:16:00,
2013-01-03 00:21:00,15.6,13.2,30.27,SE,136,0.0,0.0,90,0.00,,,0.00,Wunderground v.1.15,2013-01-03 05:21:00,
2013-01-03 00:27:00,15.5,13.1,30.27,SE,136,0.0,0.0,90,0.00,,,0.00,Wunderground v.1.15,2013-01-03 05:27:00,
2013-01-03 00:32:00,15.3,12.9,30.27,SE,136,0.0,0.0,90,0.00,,,0.00,Wunderground v.1.15,2013-01-03 05:32:00,
2013-01-03 00:37:00,15.2,12.8,30.27,SE,136,0.0,0.0,90,0.00,,,0.00,Wunderground v.1.15,2013-01-03 05:37:00,
2013-01-03 00:43:00,15.0,12.6,30.27,SE,136,0.0,0.0,90,0.00,,,0.00,Wunderground v.1.15,2013-01-03 05:43:00,
2013-01-03 00:48:00,15.0,12.6,30.26,SE,136,0.0,0.0,90,0.00,,,0.00,Wunderground v.1.15,2013-01-03 05:48:00,
2013-01-03 00:53:00,14.9,12.5,30.26,SE,136,0.0,0.0,90,0.00,,,0.00,Wunderground v.1.15,2013-01-03 05:53:00,
2013-01-03 00:59:00,14.9,12.7,30.26,SE,136,0.0,0.0,91,0.00,,,0.00,Wunderground v.1.15,2013-01-03 05:59:00,
2013-01-03 01:04:00,14.9,12.7,30.25,SE,136,0.0,0.0,91,0.00,,,0.00,Wunderground v.1.15,2013-01-03 06:04:00,
2013-01-03 01:09:00,14.9,12.7,30.25,SE,136,0.0,0.0,91,0.00,,,0.00,Wunderground v.1.15,2013-01-03 06:09:00,
2013-01-03 01:14:00,14.9,12.7,30.26,SE,136,0.0,0.0,91,0.00,,,0.00,Wunderground v.1.15,2013-01-03 06:14:00,
2013-01-03 01:20:00,14.9,12.7,30.26,SE,136,0.0,0.0,91,0.00,,,0.00,Wunderground v.1.15,2013-01-03 06:20:00,
2013-01-03 01:25:00,14.8,12.6,30.26,SE,136,0.0,0.0,91,0.00,,,0.00,Wunderground v.1.15,2013-01-03 06:25:00,
2013-01-03 01:30:00,14.7,12.3,30.26,SE,136,0.0,0.0,90,0.00,,,0.00,Wunderground v.1.15,2013-01-03 06:30:00,
2013-01-03 01:35:00,14.6,12.2,30.27,SE,136,0.0,0.0,90,0.00,,,0.00,Wunderground v.1.15,2013-01-03 06:35:00,
2013-01-03 01:41:00,14.4,12.0,30.26,SE,136,0.0,0.0,90,0.00,,,0.00,Wunderground v.1.15,2013-01-03 06:41:00,
2013-01-03 01:46:00,14.3,11.9,30.26,SE,136,0.0,0.0,90,0.00,,,0.00,Wunderground v.1.15,2013-01-03 06:46:00,
2013-01-03 01:52:00,14.1,11.7,30.26,SE,136,0.0,0.0,90,0.00,,,0.00,Wunderground v.1.15,2013-01-03 06:52:00,
2013-01-03 01:57:00,13.9,11.5,30.26,SE,136,0.0,0.0,90,0.00,,,0.00,Wunderground v.1.15,2013-01-03 06:57:00,
2013-01-03 02:03:00,13.9,11.5,30.27,SE,136,0.0,0.0,90,0.00,,,0.00,Wunderground v.1.15,2013-01-03 07:03:00,
2013-01-03 02:08:00,13.8,11.7,30.27,SE,136,0.0,0.0,91,0.00,,,0.00,Wunderground v.1.15,2013-01-03 07:08:00,
2013-01-03 02:13:00,13.7,11.6,30.27,SE,136,0.0,0.0,91,0.00,,,0.00,Wunderground v.1.15,2013-01-03 07:13:00,
2013-01-03 02:19:00,13.7,11.6,30.27,SE,136,0.0,0.0,91,0.00,,,0.00,Wunderground v.1.15,2013-01-03 07:19:00,
2013-01-03 02:24:00,13.6,11.5,30.27,SE,136,0.0,0.0,91,0.00,,,0.00,Wunderground v.1.15,2013-01-03 07:24:00,
2013-01-03 02:29:00,13.6,11.5,30.27,SE,136,0.0,0.0,91,0.00,,,0.00,Wunderground v.1.15,2013-01-03 07:29:00,
2013-01-03 02:34:00,13.6,11.5,30.27,SE,136,0.0,0.0,91,0.00,,,0.00,Wunderground v.1.15,2013-01-03 07:34:00,
2013-01-03 02:40:00,13.5,11.4,30.27,SE,136,0.0,0.0,91,0.00,,,0.00,Wunderground v.1.15,2013-01-03 07:40:00,
2013-01-03 02:45:00,13.5,11.4,30.27,SE,136,0.0,0.0,91,0.00,,,0.00,Wunderground v.1.15,2013-01-03 07:45:00,
2013-01-03 02:50:00,13.5,11.4,30.27,SE,136,0.0,0.0,91,0.00,,,0.00,Wunderground v.1.15,2013-01-03 07:50:00,
2013-01-03 02:56:00,13.4,11.3,30.27,SE,136,0.0,0.0,91,0.00,,,0.00,Wunderground v.1.15,2013-01-03 07:56:00,
2013-01-03 03:02:00,13.3,11.2,30.27,SE,136,0.0,0.0,91,0.00,,,0.00,Wunderground v.1.15,2013-01-03 08:02:00,
2013-01-03 03:07:00,13.2,11.1,30.27,SE,136,0.0,0.0,91,0.00,,,0.00,Wunderground v.1.15,2013-01-03 08:07:00,
2013-01-03 03:12:00,13.2,11.1,30.27,SE,136,0.0,0.0,91,0.00,,,0.00,Wunderground v.1.15,2013-01-03 08:12:00,
2013-01-03 03:17:00,13.1,11.0,30.27,SE,136,0.0,0.0,91,0.00,,,0.00,Wunderground v.1.15,2013-01-03 08:17:00,
2013-01-03 03:23:00,13.0,10.6,30.27,SE,136,0.0,0.0,90,0.00,,,0.00,Wunderground v.1.15,2013-01-03 08:23:00,
2013-01-03 03:28:00,12.9,10.8,30.27,SE,136,0.0,0.0,91,0.00,,,0.00,Wunderground v.1.15,2013-01-03 08:28:00,
2013-01-03 03:33:00,12.8,10.7,30.27,SE,136,0.0,0.0,91,0.00,,,0.00,Wunderground v.1.15,2013-01-03 08:33:00,
2013-01-03 03:38:00,12.7,10.3,30.26,SE,136,0.0,0.0,90,0.00,,,0.00,Wunderground v.1.15,2013-01-03 08:38:00,
2013-01-03 03:44:00,12.6,10.2,30.26,SE,136,0.0,0.0,90,0.00,,,0.00,Wunderground v.1.15,2013-01-03 08:44:00,
2013-01-03 03:49:00,12.5,10.4,30.26,SE,136,0.0,0.0,91,0.00,,,0.00,Wunderground v.1.15,2013-01-03 08:49:00,
2013-01-03 03:55:00,12.3,9.9,30.26,SE,136,0.0,0.0,90,0.00,,,0.00,Wunderground v.1.15,2013-01-03 08:55:00,
2013-01-03 04:00:00,12.1,9.7,30.26,SE,136,0.0,0.0,90,0.00,,,0.00,Wunderground v.1.15,2013-01-03 09:00:00,
2013-01-03 04:06:00,12.0,9.6,30.26,SE,136,0.0,0.0,90,0.00,,,0.00,Wunderground v.1.15,2013-01-03 09:06:00,
2013-01-03 04:11:00,11.8,9.4,30.26,SE,136,0.0,0.0,90,0.00,,,0.00,Wunderground v.1.15,2013-01-03 09:11:00,
2013-01-03 04:17:00,11.6,9.2,30.26,SE,136,0.0,0.0,90,0.00,,,0.00,Wunderground v.1.15,2013-01-03 09:17:00,
2013-01-03 04:22:00,11.5,9.1,30.26,SE,136,0.0,0.0,90,0.00,,,0.00,Wunderground v.1.15,2013-01-03 09:22:00,
2013-01-03 04:27:00,11.3,8.9,30.26,SE,136,0.0,0.0,90,0.00,,,0.00,Wunderground v.1.15,2013-01-03 09:27:00,
2013-01-03 04:33:00,11.0,8.4,30.26,SE,136,0.0,0.0,89,0.00,,,0.00,Wunderground v.1.15,2013-01-03 09:33:00,
2013-01-03 04:38:00,10.8,8.4,30.26,SE,136,0.0,0.0,90,0.00,,,0.00,Wunderground v.1.15,2013-01-03 09:38:00,
2013-01-03 04:44:00,10.7,8.1,30.26,SE,136,0.0,0.0,89,0.00,,,0.00,Wunderground v.1.15,2013-01-03 09:44:00,
2013-01-03 04:49:00,10.5,7.9,30.26,SE,136,0.0,0.0,89,0.00,,,0.00,Wunderground v.1.15,2013-01-03 09:49:00,
2013-01-03 04:54:00,10.4,8.0,30.27,SE,136,0.0,0.0,90,0.00,,,0.00,Wunderground v.1.15,2013-01-03 09:54:00,
2013-01-03 05:00:00,10.3,8.0,30.27,SE,136,0.0,0.0,90,0.00,,,0.00,Wunderground v.1.15,2013-01-03 10:00:00,
2013-01-03 05:06:00,10.1,7.8,30.27,SE,136,0.0,0.0,90,0.00,,,0.00,Wunderground v.1.15,2013-01-03 10:06:00,
2013-01-03 05:11:00,10.0,7.7,30.27,SE,136,0.0,0.0,90,0.00,,,0.00,Wunderground v.1.15,2013-01-03 10:11:00,
2013-01-03 05:16:00,9.9,7.3,30.27,SE,136,0.0,0.0,89,0.00,,,0.00,Wunderground v.1.15,2013-01-03 10:16:00,
2013-01-03 05:21:00,9.6,7.0,30.26,SE,136,0.0,0.0,89,0.00,,,0.00,Wunderground v.1.15,2013-01-03 10:21:00,
2013-01-03 05:27:00,9.5,7.2,30.26,SE,136,0.0,0.0,90,0.00,,,0.00,Wunderground v.1.15,2013-01-03 10:27:00,
2013-01-03 05:32:00,9.5,7.2,30.26,SE,136,0.0,0.0,90,0.00,,,0.00,Wunderground v.1.15,2013-01-03 10:32:00,
2013-01-03 05:37:00,9.4,7.1,30.26,SE,136,0.0,0.0,90,0.00,,,0.00,Wunderground v.1.15,2013-01-03 10:37:00,
2013-01-03 05:43:00,9.2,6.9,30.26,SE,136,0.0,0.0,90,0.00,,,0.00,Wunderground v.1.15,2013-01-03 10:43:00,
2013-01-03 05:48:00,9.2,6.9,30.26,SE,136,0.0,0.0,90,0.00,,,0.00,Wunderground v.1.15,2013-01-03 10:48:00,
2013-01-03 05:54:00,9.1,6.8,30.27,SE,136,0.0,0.0,90,0.00,,,0.00,Wunderground v.1.15,2013-01-03 10:54:00,
2013-01-03 05:59:00,9.1,6.8,30.27,SE,136,0.0,0.0,90,0.00,,,0.00,Wunderground v.1.15,2013-01-03 10:59:00,
2013-01-03 06:04:00,9.0,6.7,30.27,SE,136,0.0,0.0,90,0.00,,,0.00,Wunderground v.1.15,2013-01-03 11:04:00,
2013-01-03 06:09:00,9.0,6.7,30.26,SE,136,0.0,0.0,90,0.00,,,0.00,Wunderground v.1.15,2013-01-03 11:09:00,
2013-01-03 06:15:00,8.9,6.6,30.27,SE,136,0.0,0.0,90,0.00,,,0.00,Wunderground v.1.15,2013-01-03 11:15:00,
2013-01-03 06:20:00,8.7,6.1,30.27,SE,136,0.0,0.0,89,0.00,,,0.00,Wunderground v.1.15,2013-01-03 11:20:00,
2013-01-03 06:25:00,8.6,6.0,30.27,SE,136,0.0,0.0,89,0.00,,,0.00,Wunderground v.1.15,2013-01-03 11:25:00,
2013-01-03 06:30:00,8.6,6.3,30.27,SE,136,0.0,0.0,90,0.00,,,0.00,Wunderground v.1.15,2013-01-03 11:30:00,
2013-01-03 06:36:00,8.5,6.2,30.28,SE,136,0.0,0.0,90,0.00,,,0.00,Wunderground v.1.15,2013-01-03 11:36:00,
2013-01-03 06:41:00,8.4,6.1,30.28,SE,136,0.0,0.0,90,0.00,,,0.00,Wunderground v.1.15,2013-01-03 11:41:00,
2013-01-03 06:46:00,8.3,6.0,30.28,SE,136,0.0,0.0,90,0.00,,,0.00,Wunderground v.1.15,2013-01-03 11:46:00,
2013-01-03 06:51:00,8.2,5.9,30.28,SE,136,0.0,0.0,90,0.00,,,0.00,Wunderground v.1.15,2013-01-03 11:51:00,
2013-01-03 06:57:00,8.3,6.0,30.28,SE,136,0.0,0.0,90,0.00,,,0.00,Wunderground v.1.15,2013-01-03 11:57:00,
2013-01-03 07:02:00,8.4,6.1,30.28,SE,136,0.0,0.0,90,0.00,,,0.00,Wunderground v.1.15,2013-01-03 12:02:00,
2013-01-03 07:07:00,8.5,6.2,30.28,SE,136,0.0,0.0,90,0.00,,,0.00,Wunderground v.1.15,2013-01-03 12:07:00,
2013-01-03 07:13:00,8.5,6.2,30.28,SE,136,0.0,0.0,90,0.00,,,0.00,Wunderground v.1.15,2013-01-03 12:13:00,
2013-01-03 07:18:00,8.5,6.2,30.28,SE,136,0.0,0.0,90,0.00,,,0.00,Wunderground v.1.15,2013-01-03 12:18:00,
2013-01-03 07:23:00,8.4,6.1,30.28,SE,136,0.0,0.0,90,0.00,,,0.00,Wunderground v.1.15,2013-01-03 12:23:00,
2013-01-03 07:28:00,8.5,6.2,30.28,SE,136,0.0,0.0,90,0.00,,,0.00,Wunderground v.1.15,2013-01-03 12:28:00,
2013-01-03 07:34:00,8.4,6.1,30.28,SE,136,0.0,0.0,90,0.00,,,0.00,Wunderground v.1.15,2013-01-03 12:34:00,
2013-01-03 07:39:00,8.3,5.7,30.28,SE,136,0.0,0.0,89,0.00,,,0.00,Wunderground v.1.15,2013-01-03 12:39:00,
2013-01-03 07:44:00,8.2,5.6,30.29,SE,136,0.0,0.0,89,0.00,,,0.00,Wunderground v.1.15,2013-01-03 12:44:00,
2013-01-03 07:49:00,8.1,5.5,30.28,SE,136,0.0,0.0,89,0.00,,,0.00,Wunderground v.1.15,2013-01-03 12:49:00,
2013-01-03 07:54:00,8.1,5.5,30.28,SE,136,0.0,0.0,89,0.00,,,0.00,Wunderground v.1.15,2013-01-03 12:54:00,
2013-01-03 07:59:00,8.0,5.4,30.28,SE,136,0.0,0.0,89,0.00,,,0.00,Wunderground v.1.15,2013-01-03 12:59:00,
2013-01-03 08:05:00,8.0,5.7,30.28,SE,136,0.0,0.0,90,0.00,,,0.00,Wunderground v.1.15,2013-01-03 13:05:00,
2013-01-03 08:10:00,8.0,5.7,30.28,SE,136,0.0,0.0,90,0.00,,,0.00,Wunderground v.1.15,2013-01-03 13:10:00,
2013-01-03 08:15:00,8.1,5.8,30.29,SE,136,0.0,0.0,90,0.00,,,0.00,Wunderground v.1.15,2013-01-03 13:15:00,
2013-01-03 08:20:00,8.2,5.9,30.29,SE,136,0.0,0.0,90,0.00,,,0.00,Wunderground v.1.15,2013-01-03 13:20:00,
2013-01-03 08:25:00,8.3,6.0,30.29,SE,136,0.0,0.0,90,0.00,,,0.00,Wunderground v.1.15,2013-01-03 13:25:00,
2013-01-03 08:30:00,8.5,6.2,30.29,SE,136,0.0,0.0,90,0.00,,,0.00,Wunderground v.1.15,2013-01-03 13:30:00,
2013-01-03 08:35:00,8.9,6.8,30.30,SE,136,0.0,0.0,91,0.00,,,0.00,Wunderground v.1.15,2013-01-03 13:35:00,
2013-01-03 08:41:00,9.5,7.4,30.30,SE,136,0.0,0.0,91,0.00,,,0.00,Wunderground v.1.15,2013-01-03 13:41:00,
2013-01-03 08:46:00,10.4,8.5,30.30,SE,136,0.0,0.0,92,0.00,,,0.00,Wunderground v.1.15,2013-01-03 13:46:00,
2013-01-03 08:52:00,11.0,8.9,30.30,SE,136,0.0,0.0,91,0.00,,,0.00,Wunderground v.1.15,2013-01-03 13:52:00,
2013-01-03 08:57:00,11.4,9.0,30.30,SE,136,0.0,0.0,90,0.00,,,0.00,Wunderground v.1.15,2013-01-03 13:57:00,
2013-01-03 09:03:00,11.8,9.4,30.30,SE,136,0.0,0.0,90,0.00,,,0.00,Wunderground v.1.15,2013-01-03 14:03:00,
2013-01-03 09:08:00,12.2,10.1,30.30,SE,136,0.0,0.0,91,0.00,,,0.00,Wunderground v.1.15,2013-01-03 14:08:00,
2013-01-03 09:13:00,12.7,10.6,30.29,SE,136,0.0,0.0,91,0.00,,,0.00,Wunderground v.1.15,2013-01-03 14:13:00,
2013-01-03 09:18:00,13.3,11.2,30.29,SE,136,0.0,0.0,91,0.00,,,0.00,Wunderground v.1.15,2013-01-03 14:18:00,
2013-01-03 09:23:00,13.8,11.7,30.28,SE,136,0.0,0.0,91,0.00,,,0.00,Wunderground v.1.15,2013-01-03 14:23:00,
2013-01-03 09:29:00,14.2,11.8,30.29,SE,136,0.0,0.0,90,0.00,,,0.00,Wunderground v.1.15,2013-01-03 14:29:00,
2013-01-03 09:34:00,14.6,12.2,30.29,SE,136,0.0,0.0,90,0.00,,,0.00,Wunderground v.1.15,2013-01-03 14:34:00,
2013-01-03 09:40:00,15.1,12.7,30.29,SE,136,0.0,0.0,90,0.00,,,0.00,Wunderground v.1.15,2013-01-03 14:40:00,
2013-01-03 09:45:00,15.5,13.1,30.29,SE,136,0.0,0.0,90,0.00,,,0.00,Wunderground v.1.15,2013-01-03 14:45:00,
2013-01-03 09:50:00,16.1,13.7,30.30,East,81,0.0,0.0,90,0.00,,,0.00,Wunderground v.1.15,2013-01-03 14:50:00,
2013-01-03 09:56:00,17.0,14.8,30.30,ENE,73,0.0,0.0,91,0.00,,,0.00,Wunderground v.1.15,2013-01-03 14:56:00,
2013-01-03 10:02:00,17.7,15.3,30.30,ENE,74,0.0,2.0,90,0.00,,,0.00,Wunderground v.1.15,2013-01-03 15:02:00,
2013-01-03 10:07:00,18.6,15.6,30.30,SE,131,0.0,3.0,88,0.00,,,0.00,Wunderground v.1.15,2013-01-03 15:07:00,
2013-01-03 10:12:00,19.3,16.3,30.30,SE,130,0.0,0.0,88,0.00,,,0.00,Wunderground v.1.15,2013-01-03 15:12:00,
2013-01-03 10:17:00,19.9,16.4,30.30,ESE,114,0.0,1.0,86,0.00,,,0.00,Wunderground v.1.15,2013-01-03 15:17:00,
2013-01-03 10:23:00,20.4,16.6,30.30,ESE,111,0.0,2.0,85,0.00,,,0.00,Wunderground v.1.15,2013-01-03 15:23:00,
2013-01-03 10:28:00,21.1,16.7,30.31,East,90,0.0,2.0,83,0.00,,,0.00,Wunderground v.1.15,2013-01-03 15:28:00,
2013-01-03 10:33:00,21.8,17.2,30.30,SE,136,0.0,1.0,82,0.00,,,0.00,Wunderground v.1.15,2013-01-03 15:33:00,
2013-01-03 10:38:00,22.4,17.2,30.30,East,82,0.0,2.0,80,0.00,,,0.00,Wunderground v.1.15,2013-01-03 15:38:00,
2013-01-03 10:44:00,23.2,17.4,30.30,ESE,110,0.0,1.0,78,0.00,,,0.00,Wunderground v.1.15,2013-01-03 15:44:00,
2013-01-03 10:49:00,24.0,17.8,30.30,ESE,121,0.0,1.0,77,0.00,,,0.00,Wunderground v.1.15,2013-01-03 15:49:00,
2013-01-03 10:54:00,24.7,17.9,30.29,ESE,112,1.0,4.0,75,0.00,,,0.00,Wunderground v.1.15,2013-01-03 15:54:00,
2013-01-03 11:00:00,25.2,17.8,30.28,NE,44,1.0,2.0,73,0.00,,,0.00,Wunderground v.1.15,2013-01-03 16:00:00,
2013-01-03 11:06:00,25.9,18.1,30.28,SE,129,1.0,2.0,72,0.00,,,0.00,Wunderground v.1.15,2013-01-03 16:06:00,
2013-01-03 11:12:00,26.4,18.6,30.27,ESE,104,1.0,1.0,72,0.00,,,0.00,Wunderground v.1.15,2013-01-03 16:12:00,
2013-01-03 11:17:00,26.9,19.1,30.27,East,94,1.0,5.0,72,0.00,,,0.00,Wunderground v.1.15,2013-01-03 16:17:00,
2013-01-03 11:22:00,27.3,19.1,30.27,SE,131,1.0,1.0,71,0.00,,,0.00,Wunderground v.1.15,2013-01-03 16:22:00,
2013-01-03 11:27:00,27.7,19.5,30.26,ESE,122,1.0,3.0,71,0.00,,,0.00,Wunderground v.1.15,2013-01-03 16:27:00,
2013-01-03 11:33:00,28.1,19.6,30.26,SE,133,2.0,2.0,70,0.00,,,0.00,Wunderground v.1.15,2013-01-03 16:33:00,
2013-01-03 11:38:00,28.5,20.0,30.25,East,101,1.0,3.0,70,0.00,,,0.00,Wunderground v.1.15,2013-01-03 16:38:00,
2013-01-03 11:43:00,28.8,19.9,30.25,ESE,103,1.0,2.0,69,0.00,,,0.00,Wunderground v.1.15,2013-01-03 16:43:00,
2013-01-03 11:48:00,29.0,20.1,30.24,SE,136,1.0,2.0,69,0.00,,,0.00,Wunderground v.1.15,2013-01-03 16:48:00,
2013-01-03 11:54:00,29.4,20.1,30.24,ESE,119,1.0,2.0,68,0.00,,,0.00,Wunderground v.1.15,2013-01-03 16:54:00,
2013-01-03 11:59:00,29.8,20.5,30.24,SE,146,1.0,2.0,68,0.00,,,0.00,Wunderground v.1.15,2013-01-03 16:59:00,
2013-01-03 12:04:00,30.1,20.5,30.24,SSE,153,1.0,3.0,67,0.00,,,0.00,Wunderground v.1.15,2013-01-03 17:04:00,
2013-01-03 12:09:00,30.5,20.5,30.23,SSE,155,1.0,3.0,66,0.00,,,0.00,Wunderground v.1.15,2013-01-03 17:09:00,
2013-01-03 12:15:00,30.8,20.8,30.23,East,90,1.0,2.0,66,0.00,,,0.00,Wunderground v.1.15,2013-01-03 17:15:00,
2013-01-03 12:20:00,31.0,20.6,30.23,ESE,114,1.0,1.0,65,0.00,,,0.00,Wunderground v.1.15,2013-01-03 17:20:00,
2013-01-03 12:25:00,31.3,20.9,30.23,ESE,105,1.0,2.0,65,0.00,,,0.00,Wunderground v.1.15,2013-01-03 17:25:00,
2013-01-03 12:31:00,31.7,20.5,30.23,ESE,104,1.0,1.0,63,0.00,,,0.00,Wunderground v.1.15,2013-01-03 17:31:00,
2013-01-03 12:36:00,32.0,21.2,30.22,ESE,107,1.0,2.0,64,0.00,,,0.00,Wunderground v.1.15,2013-01-03 17:36:00,
2013-01-03 12:41:00,32.2,21.0,30.22,SSE,164,1.0,1.0,63,0.00,,,0.00,Wunderground v.1.15,2013-01-03 17:41:00,
2013-01-03 12:47:00,32.9,21.7,30.21,SE,136,1.0,2.0,63,0.00,,,0.00,Wunderground v.1.15,2013-01-03 17:47:00,
2013-01-03 12:52:00,33.2,21.6,30.21,East,96,1.0,1.0,62,0.00,,,0.00,Wunderground v.1.15,2013-01-03 17:52:00,
2013-01-03 12:57:00,33.3,22.1,30.21,SE,126,1.0,2.0,63,0.00,,,0.00,Wunderground v.1.15,2013-01-03 17:57:00,
2013-01-03 13:03:00,33.5,21.5,30.20,ESE,103,1.0,3.0,61,0.00,,,0.00,Wunderground v.1.15,2013-01-03 18:03:00,
2013-01-03 13:08:00,33.5,21.5,30.20,South,183,1.0,3.0,61,0.00,,,0.00,Wunderground v.1.15,2013-01-03 18:08:00,
2013-01-03 13:14:00,34.0,22.3,30.20,East,97,1.0,1.0,62,0.00,,,0.00,Wunderground v.1.15,2013-01-03 18:14:00,
2013-01-03 13:19:00,34.2,23.3,30.20,East,88,0.0,3.0,64,0.00,,,0.00,Wunderground v.1.15,2013-01-03 18:19:00,
2013-01-03 13:24:00,34.5,22.4,30.20,NE,48,1.0,2.0,61,0.00,,,0.00,Wunderground v.1.15,2013-01-03 18:24:00,
2013-01-03 13:29:00,34.7,22.6,30.20,SSW,207,1.0,2.0,61,0.00,,,0.00,Wunderground v.1.15,2013-01-03 18:29:00,
2013-01-03 13:35:00,34.9,22.8,30.19,West,280,1.0,2.0,61,0.00,,,0.00,Wunderground v.1.15,2013-01-03 18:35:00,
2013-01-03 13:40:00,34.8,22.7,30.20,ESE,111,1.0,1.0,61,0.00,,,0.01,Wunderground v.1.15,2013-01-03 18:40:00,
2013-01-03 13:46:00,34.7,23.0,30.19,NNE,18,1.0,3.0,62,0.13,,,0.02,Wunderground v.1.15,2013-01-03 18:46:00,
2013-01-03 13:51:00,34.8,22.7,30.19,SE,138,1.0,3.0,61,0.09,,,0.02,Wunderground v.1.15,2013-01-03 18:51:00,
2013-01-03 13:57:00,35.1,23.0,30.19,SE,134,1.0,3.0,61,0.06,,,0.03,Wunderground v.1.15,2013-01-03 18:57:00,
2013-01-03 14:02:00,35.0,22.9,30.19,South,191,1.0,2.0,61,0.06,,,0.03,Wunderground v.1.15,2013-01-03 19:02:00,
2013-01-03 14:07:00,34.9,22.8,30.19,ESE,109,1.0,2.0,61,0.07,,,0.04,Wunderground v.1.15,2013-01-03 19:07:00,
2013-01-03 14:12:00,34.5,23.2,30.19,SE,135,1.0,1.0,63,0.07,,,0.04,Wunderground v.1.15,2013-01-03 19:12:00,
2013-01-03 14:18:00,34.4,23.5,30.19,East,80,1.0,2.0,64,0.05,,,0.05,Wunderground v.1.15,2013-01-03 19:18:00,
2013-01-03 14:53:00,33.5,23.4,30.19,SE,140,0.0,1.0,66,0.00,,,0.06,Wunderground v.1.15,2013-01-03 19:53:00,
2013-01-03 14:58:00,33.3,23.2,30.19,ESE,118,0.0,1.0,66,0.00,,,0.06,Wunderground v.1.15,2013-01-03 19:58:00,
2013-01-03 15:03:00,33.2,23.4,30.20,NNE,27,0.0,0.0,67,0.00,,,0.07,Wunderground v.1.15,2013-01-03 20:03:00,
2013-01-03 15:08:00,33.0,22.9,30.19,NE,34,0.0,2.0,66,0.00,,,0.07,Wunderground v.1.15,2013-01-03 20:08:00,
2013-01-03 15:13:00,32.8,22.7,30.19,SSE,152,0.0,0.0,66,0.00,,,0.07,Wunderground v.1.15,2013-01-03 20:13:00,
2013-01-03 15:19:00,32.8,23.7,30.19,SSE,151,0.0,0.0,69,0.00,,,0.07,Wunderground v.1.15,2013-01-03 20:19:00,
2013-01-03 15:24:00,32.7,23.3,30.19,East,90,0.0,2.0,68,0.00,,,0.07,Wunderground v.1.15,2013-01-03 20:24:00,
2013-01-03 15:29:00,32.8,24.1,30.19,ENE,62,0.0,2.0,70,0.00,,,0.07,Wunderground v.1.15,2013-01-03 20:29:00,
2013-01-03 15:34:00,32.9,23.1,30.19,SSE,150,0.0,3.0,67,0.00,,,0.07,Wunderground v.1.15,2013-01-03 20:34:00,
2013-01-03 15:40:00,33.0,23.2,30.19,ENE,58,0.0,0.0,67,0.00,,,0.07,Wunderground v.1.15,2013-01-03 20:40:00,
2013-01-03 15:45:00,33.2,23.1,30.19,ESE,108,0.0,2.0,66,0.00,,,0.07,Wunderground v.1.15,2013-01-03 20:45:00,
2013-01-03 15:50:00,33.3,22.8,30.19,ESE,113,1.0,1.0,65,0.00,,,0.07,Wunderground v.1.15,2013-01-03 20:50:00,
2013-01-03 15:56:00,33.3,23.9,30.19,East,95,0.0,2.0,68,0.00,,,0.08,Wunderground v.1.15,2013-01-03 20:56:00,
2013-01-03 16:02:00,33.2,23.8,30.19,East,100,0.0,0.0,68,0.00,,,0.08,Wunderground v.1.15,2013-01-03 21:02:00,
2013-01-03 16:07:00,33.1,22.2,30.19,NE,55,1.0,2.0,64,0.00,,,0.08,Wunderground v.1.15,2013-01-03 21:07:00,
2013-01-03 16:12:00,33.0,23.2,30.19,SE,139,1.0,1.0,67,0.00,,,0.08,Wunderground v.1.15,2013-01-03 21:12:00,
2013-01-03 16:17:00,32.8,23.4,30.20,SE,138,0.0,2.0,68,0.00,,,0.08,Wunderground v.1.15,2013-01-03 21:17:00,
2013-01-03 16:23:00,32.3,22.6,30.20,East,82,0.0,0.0,67,0.00,,,0.08,Wunderground v.1.15,2013-01-03 21:23:00,
2013-01-03 16:28:00,32.0,23.3,30.20,North,360,0.0,2.0,70,0.00,,,0.08,Wunderground v.1.15,2013-01-03 21:28:00,
2013-01-03 16:33:00,31.6,22.9,30.20,North,360,0.0,0.0,70,0.00,,,0.08,Wunderground v.1.15,2013-01-03 21:33:00,
2013-01-03 16:38:00,31.3,22.0,30.20,East,88,0.0,3.0,68,0.00,,,0.08,Wunderground v.1.15,2013-01-03 21:38:00,
2013-01-03 16:43:00,31.1,22.1,30.20,East,88,0.0,0.0,69,0.00,,,0.08,Wunderground v.1.15,2013-01-03 21:43:00,
2013-01-03 16:49:00,31.1,21.4,30.20,NE,41,0.0,1.0,67,0.00,,,0.08,Wunderground v.1.15,2013-01-03 21:49:00,
2013-01-03 16:55:00,31.0,21.3,30.21,NE,56,0.0,0.0,67,0.00,,,0.08,Wunderground v.1.15,2013-01-03 21:55:00,
2013-01-03 17:00:00,30.9,21.6,30.21,South,172,0.0,0.0,68,0.00,,,0.08,Wunderground v.1.15,2013-01-03 22:00:00,
2013-01-03 17:06:00,30.7,22.1,30.21,NNW,337,0.0,1.0,70,0.00,,,0.08,Wunderground v.1.15,2013-01-03 22:06:00,
2013-01-03 17:12:00,30.6,21.3,30.21,NNW,338,0.0,0.0,68,0.00,,,0.08,Wunderground v.1.15,2013-01-03 22:12:00,
2013-01-03 17:17:00,30.6,22.0,30.22,East,88,1.0,2.0,70,0.00,,,0.08,Wunderground v.1.15,2013-01-03 22:17:00,
2013-01-03 17:22:00,30.6,22.0,30.22,NE,43,1.0,4.0,70,0.00,,,0.08,Wunderground v.1.15,2013-01-03 22:22:00,
2013-01-03 17:28:00,30.8,21.8,30.22,East,97,0.0,4.0,69,0.00,,,0.08,Wunderground v.1.15,2013-01-03 22:28:00,
2013-01-03 17:33:00,30.9,22.6,30.22,East,83,0.0,0.0,71,0.00,,,0.08,Wunderground v.1.15,2013-01-03 22:33:00,
2013-01-03 17:38:00,30.8,22.2,30.22,NE,50,0.0,0.0,70,0.00,,,0.08,Wunderground v.1.15,2013-01-03 22:38:00,
2013-01-03 17:43:00,30.9,21.9,30.22,East,94,0.0,1.0,69,0.00,,,0.08,Wunderground v.1.15,2013-01-03 22:43:00,
2013-01-03 17:49:00,31.1,21.8,30.22,NE,38,0.0,2.0,68,0.00,,,0.08,Wunderground v.1.15,2013-01-03 22:49:00,
2013-01-03 17:54:00,31.1,22.5,30.22,East,80,0.0,0.0,70,0.00,,,0.08,Wunderground v.1.15,2013-01-03 22:54:00,
2013-01-03 17:59:00,31.1,22.8,30.23,East,101,0.0,0.0,71,0.00,,,0.08,Wunderground v.1.15,2013-01-03 22:59:00,
2013-01-03 18:05:00,31.2,22.5,30.23,SE,129,0.0,0.0,70,0.00,,,0.08,Wunderground v.1.15,2013-01-03 23:05:00,
2013-01-03 18:10:00,31.2,22.9,30.23,SE,129,0.0,0.0,71,0.00,,,0.08,Wunderground v.1.15,2013-01-03 23:10:00,
2013-01-03 18:15:00,31.1,22.8,30.23,SE,129,0.0,0.0,71,0.00,,,0.08,Wunderground v.1.15,2013-01-03 23:15:00,
2013-01-03 18:20:00,31.0,22.7,30.23,SE,133,0.0,0.0,71,0.00,,,0.08,Wunderground v.1.15,2013-01-03 23:20:00,
2013-01-03 18:25:00,31.0,22.4,30.24,NE,47,0.0,1.0,70,0.00,,,0.08,Wunderground v.1.15,2013-01-03 23:25:00,
2013-01-03 18:30:00,31.1,22.5,30.24,SSE,163,0.0,0.0,70,0.00,,,0.08,Wunderground v.1.15,2013-01-03 23:30:00,
2013-01-03 18:36:00,31.1,22.5,30.24,NE,55,0.0,2.0,70,0.00,,,0.08,Wunderground v.1.15,2013-01-03 23:36:00,
2013-01-03 18:41:00,31.1,22.5,30.24,SSE,159,0.0,2.0,70,0.00,,,0.08,Wunderground v.1.15,2013-01-03 23:41:00,
2013-01-03 18:47:00,31.2,22.2,30.24,East,100,0.0,2.0,69,0.00,,,0.08,Wunderground v.1.15,2013-01-03 23:47:00,
2013-01-03 18:52:00,31.2,22.9,30.23,East,99,0.0,0.0,71,0.00,,,0.08,Wunderground v.1.15,2013-01-03 23:52:00,
2013-01-03 18:57:00,31.1,22.8,30.24,East,99,0.0,0.0,71,0.00,,,0.08,Wunderground v.1.15,2013-01-03 23:57:00,
2013-01-03 19:02:00,31.0,22.7,30.24,East,99,0.0,0.0,71,0.00,,,0.08,Wunderground v.1.15,2013-01-04 00:02:00,
2013-01-03 19:08:00,31.0,22.7,30.24,East,99,0.0,0.0,71,0.00,,,0.08,Wunderground v.1.15,2013-01-04 00:08:00,
2013-01-03 19:13:00,31.0,22.4,30.25,SSE,147,0.0,2.0,70,0.00,,,0.08,Wunderground v.1.15,2013-01-04 00:13:00,
2013-01-03 19:18:00,31.1,22.5,30.25,SE,137,0.0,3.0,70,0.00,,,0.08,Wunderground v.1.15,2013-01-04 00:18:00,
2013-01-03 19:24:00,31.2,22.2,30.24,ESE,115,1.0,1.0,69,0.00,,,0.08,Wunderground v.1.15,2013-01-04 00:24:00,
2013-01-03 19:29:00,31.1,22.5,30.25,ENE,76,0.0,1.0,70,0.00,,,0.08,Wunderground v.1.15,2013-01-04 00:29:00,
2013-01-03 19:34:00,31.1,22.8,30.25,ENE,63,0.0,1.0,71,0.00,,,0.08,Wunderground v.1.15,2013-01-04 00:34:00,
2013-01-03 19:40:00,31.0,22.4,30.25,ESE,111,1.0,1.0,70,0.00,,,0.08,Wunderground v.1.15,2013-01-04 00:40:00,
2013-01-03 19:45:00,31.0,23.0,30.25,ESE,113,1.0,1.0,72,0.00,,,0.08,Wunderground v.1.15,2013-01-04 00:45:00,
2013-01-03 19:50:00,30.9,22.3,30.25,ENE,58,0.0,0.0,70,0.00,,,0.08,Wunderground v.1.15,2013-01-04 00:50:00,
2013-01-03 19:55:00,30.9,22.6,30.25,ESE,115,0.0,0.0,71,0.00,,,0.08,Wunderground v.1.15,2013-01-04 00:55:00,
2013-01-03 20:00:00,30.9,22.3,30.25,NNE,32,0.0,0.0,70,0.00,,,0.08,Wunderground v.1.15,2013-01-04 01:00:00,
2013-01-03 20:06:00,30.9,22.6,30.25,ESE,116,0.0,2.0,71,0.00,,,0.08,Wunderground v.1.15,2013-01-04 01:06:00,
2013-01-03 20:11:00,30.8,22.8,30.25,ESE,116,0.0,0.0,72,0.00,,,0.08,Wunderground v.1.15,2013-01-04 01:11:00,
2013-01-03 20:16:00,30.8,22.8,30.25,ESE,104,0.0,0.0,72,0.00,,,0.08,Wunderground v.1.15,2013-01-04 01:16:00,
2013-01-03 20:22:00,30.7,23.1,30.25,ESE,107,0.0,0.0,73,0.00,,,0.08,Wunderground v.1.15,2013-01-04 01:22:00,
2013-01-03 20:27:00,30.6,23.0,30.25,ESE,107,0.0,0.0,73,0.00,,,0.08,Wunderground v.1.15,2013-01-04 01:27:00,
2013-01-03 20:32:00,30.5,22.9,30.25,NE,44,0.0,0.0,73,0.00,,,0.08,Wunderground v.1.15,2013-01-04 01:32:00,
2013-01-03 20:37:00,30.5,22.9,30.25,East,100,0.0,4.0,73,0.00,,,0.08,Wunderground v.1.15,2013-01-04 01:37:00,
2013-01-03 20:42:00,30.5,22.5,30.25,SSW,196,1.0,1.0,72,0.00,,,0.08,Wunderground v.1.15,2013-01-04 01:42:00,
2013-01-03 20:47:00,30.5,22.9,30.25,ENE,75,0.0,1.0,73,0.00,,,0.08,Wunderground v.1.15,2013-01-04 01:47:00,
2013-01-03 20:52:00,30.5,22.2,30.25,ESE,109,1.0,2.0,71,0.00,,,0.08,Wunderground v.1.15,2013-01-04 01:52:00,
2013-01-03 20:58:00,30.5,22.5,30.25,ESE,119,1.0,2.0,72,0.00,,,0.08,Wunderground v.1.15,2013-01-04 01:58:00,
2013-01-03 21:03:00,30.5,22.2,30.25,East,92,1.0,3.0,71,0.00,,,0.08,Wunderground v.1.15,2013-01-04 02:03:00,
2013-01-03 21:09:00,30.5,21.9,30.25,NE,46,1.0,3.0,70,0.00,,,0.08,Wunderground v.1.15,2013-01-04 02:09:00,
2013-01-03 21:14:00,30.5,21.9,30.26,East,101,1.0,2.0,70,0.00,,,0.08,Wunderground v.1.15,2013-01-04 02:14:00,
2013-01-03 21:19:00,30.4,22.1,30.26,SSE,163,1.0,2.0,71,0.00,,,0.08,Wunderground v.1.15,2013-01-04 02:19:00,
2013-01-03 21:24:00,30.3,21.7,30.25,East,82,1.0,3.0,70,0.00,,,0.08,Wunderground v.1.15,2013-01-04 02:24:00,
2013-01-03 21:30:00,30.3,21.7,30.25,SSE,148,1.0,1.0,70,0.00,,,0.08,Wunderground v.1.15,2013-01-04 02:30:00,
2013-01-03 21:35:00,30.2,21.6,30.26,ESE,123,0.0,1.0,70,0.00,,,0.08,Wunderground v.1.15,2013-01-04 02:35:00,
2013-01-03 21:40:00,30.2,22.3,30.26,ESE,103,0.0,2.0,72,0.00,,,0.08,Wunderground v.1.15,2013-01-04 02:40:00,
2013-01-03 21:45:00,30.1,21.5,30.25,East,96,1.0,4.0,70,0.00,,,0.08,Wunderground v.1.15,2013-01-04 02:45:00,
2013-01-03 21:51:00,30.0,21.7,30.26,South,176,1.0,1.0,71,0.00,,,0.08,Wunderground v.1.15,2013-01-04 02:51:00,
2013-01-03 21:57:00,29.9,22.0,30.26,SSE,153,1.0,2.0,72,0.00,,,0.08,Wunderground v.1.15,2013-01-04 02:57:00,
2013-01-03 22:02:00,29.8,21.2,30.26,SE,145,1.0,3.0,70,0.00,,,0.08,Wunderground v.1.15,2013-01-04 03:02:00,
2013-01-03 22:07:00,29.8,21.9,30.26,SSE,165,1.0,3.0,72,0.00,,,0.08,Wunderground v.1.15,2013-01-04 03:07:00,
2013-01-03 22:13:00,29.7,22.1,30.26,ESE,119,1.0,1.0,73,0.00,,,0.08,Wunderground v.1.15,2013-01-04 03:13:00,
2013-01-03 22:18:00,29.6,21.7,30.26,South,186,1.0,2.0,72,0.00,,,0.08,Wunderground v.1.15,2013-01-04 03:18:00,
2013-01-03 22:23:00,29.6,21.7,30.27,ESE,105,1.0,2.0,72,0.00,,,0.08,Wunderground v.1.15,2013-01-04 03:23:00,
2013-01-03 22:29:00,29.6,21.7,30.27,SE,128,1.0,2.0,72,0.00,,,0.08,Wunderground v.1.15,2013-01-04 03:29:00,
2013-01-03 22:34:00,29.5,21.9,30.27,East,82,1.0,1.0,73,0.00,,,0.08,Wunderground v.1.15,2013-01-04 03:34:00,
2013-01-03 22:39:00,29.5,21.6,30.27,ESE,113,1.0,7.0,72,0.00,,,0.08,Wunderground v.1.15,2013-01-04 03:39:00,
2013-01-03 22:44:00,29.4,22.1,30.27,ESE,113,1.0,1.0,74,0.00,,,0.08,Wunderground v.1.15,2013-01-04 03:44:00,
2013-01-03 22:50:00,29.4,22.1,30.27,ESE,103,0.0,0.0,74,0.00,,,0.08,Wunderground v.1.15,2013-01-04 03:50:00,
2013-01-03 22:55:00,29.3,21.7,30.27,ESE,107,0.0,1.0,73,0.00,,,0.08,Wunderground v.1.15,2013-01-04 03:55:00,
2013-01-03 23:00:00,29.3,22.0,30.28,ESE,107,0.0,0.0,74,0.00,,,0.08,Wunderground v.1.15,2013-01-04 04:00:00,
2013-01-03 23:06:00,29.3,22.4,30.28,SE,128,0.0,1.0,75,0.00,,,0.08,Wunderground v.1.15,2013-01-04 04:06:00,
2013-01-03 23:11:00,29.3,22.4,30.28,ESE,117,0.0,1.0,75,0.00,,,0.08,Wunderground v.1.15,2013-01-04 04:11:00,
2013-01-03 23:16:00,29.2,22.6,30.27,East,86,0.0,2.0,76,0.00,,,0.08,Wunderground v.1.15,2013-01-04 04:16:00,
2013-01-03 23:21:00,29.2,22.6,30.27,SE,146,0.0,0.0,76,0.00,,,0.08,Wunderground v.1.15,2013-01-04 04:21:00,
2013-01-03 23:26:00,29.1,22.5,30.27,ESE,102,0.0,1.0,76,0.00,,,0.08,Wunderground v.1.15,2013-01-04 04:26:00,
2013-01-03 23:31:00,29.0,22.7,30.27,ESE,102,0.0,0.0,77,0.00,,,0.08,Wunderground v.1.15,2013-01-04 04:31:00,
2013-01-03 23:37:00,28.9,22.3,30.27,East,91,0.0,0.0,76,0.00,,,0.08,Wunderground v.1.15,2013-01-04 04:37:00,
2013-01-03 23:42:00,28.9,22.3,30.27,SW,215,0.0,2.0,76,0.00,,,0.08,Wunderground v.1.15,2013-01-04 04:42:00,
2013-01-03 23:47:00,28.9,22.6,30.27,SSE,163,0.0,2.0,77,0.00,,,0.08,Wunderground v.1.15,2013-01-04 04:47:00,
2013-01-03 23:52:00,28.9,22.3,30.26,ESE,103,0.0,2.0,76,0.00,,,0.08,Wunderground v.1.15,2013-01-04 04:52:00,
2013-01-03 23:58:00,28.9,22.9,30.26,NE,51,1.0,2.0,78,0.00,,,0.08,Wunderground v.1.15,2013-01-04 04:58:00,